createdAt,value
2022-07-26T00:00:12.874Z,21.30
2022-07-26T00:02:47.430Z,21.30
2022-07-26T00:05:16.320Z,21.40
2022-07-26T00:07:43.715Z,21.40
2022-07-26T00:10:10.592Z,21.30
2022-07-26T00:12:37.657Z,21.40
2022-07-26T00:15:06.639Z,21.30
2022-07-26T00:17:33.376Z,21.20
2022-07-26T00:20:00.082Z,21.10
2022-07-26T00:22:36.233Z,20.80
2022-07-26T00:25:07.365Z,20.60
2022-07-26T00:27:36.922Z,20.30
2022-07-26T00:30:06.450Z,19.90
2022-07-26T00:32:33.255Z,19.70
2022-07-26T00:34:59.981Z,19.50
2022-07-26T00:37:26.764Z,19.30
2022-07-26T00:39:53.475Z,19.20
2022-07-26T00:42:20.229Z,19.10
2022-07-26T00:44:47.746Z,19.00
2022-07-26T00:47:21.298Z,19.00
2022-07-26T00:49:48.093Z,19.00
2022-07-26T00:52:14.822Z,19.00
2022-07-26T00:54:45.559Z,19.00
2022-07-26T00:57:15.830Z,19.10
2022-07-26T00:59:43.131Z,19.10
2022-07-26T01:02:10.920Z,19.10
2022-07-26T01:04:37.677Z,19.10
2022-07-26T01:07:14.538Z,19.10
2022-07-26T01:09:42.601Z,19.10
2022-07-26T01:12:09.712Z,19.20
2022-07-26T01:14:36.775Z,19.20
2022-07-26T01:17:03.523Z,19.20
2022-07-26T01:19:30.244Z,19.30
2022-07-26T01:21:56.937Z,19.30
2022-07-26T01:24:23.690Z,19.30
2022-07-26T01:26:50.474Z,19.30
2022-07-26T01:29:17.343Z,19.30
2022-07-26T01:31:44.260Z,19.20
2022-07-26T01:34:11.471Z,19.30
2022-07-26T01:36:38.381Z,19.30
2022-07-26T01:39:07.036Z,19.30
2022-07-26T01:41:37.525Z,18.90
2022-07-26T01:44:05.959Z,19.30
2022-07-26T01:46:33.402Z,19.30
2022-07-26T01:49:01.716Z,19.30
2022-07-26T01:51:28.637Z,19.30
2022-07-26T01:53:55.496Z,19.30
2022-07-26T01:56:22.238Z,19.20
2022-07-26T01:58:49.548Z,19.20
2022-07-26T02:01:16.507Z,19.20
2022-07-26T02:04:03.109Z,19.20
2022-07-26T02:06:29.809Z,19.10
2022-07-26T02:08:56.478Z,19.00
2022-07-26T02:11:23.293Z,19.00
2022-07-26T02:13:53.040Z,19.00
2022-07-26T02:16:20.125Z,19.00
2022-07-26T02:18:47.027Z,19.00
2022-07-26T02:21:13.713Z,19.00
2022-07-26T02:23:41.804Z,19.00
2022-07-26T02:26:08.928Z,19.00
2022-07-26T02:28:35.844Z,18.90
2022-07-26T02:31:02.843Z,19.00
2022-07-26T02:33:29.587Z,18.90
2022-07-26T02:35:56.278Z,18.90
2022-07-26T02:38:22.972Z,18.90
2022-07-26T02:40:52.537Z,18.90
2022-07-26T02:43:20.578Z,18.90
2022-07-26T02:46:01.649Z,18.80
2022-07-26T02:48:30.348Z,18.80
2022-07-26T02:50:57.161Z,18.70
2022-07-26T02:53:23.826Z,18.70
2022-07-26T02:55:50.526Z,18.60
2022-07-26T02:58:17.314Z,18.60
2022-07-26T03:00:44.101Z,18.60
2022-07-26T03:03:14.153Z,18.60
2022-07-26T03:05:41.279Z,18.60
2022-07-26T03:08:08.086Z,18.60
2022-07-26T03:10:34.801Z,18.60
2022-07-26T03:13:02.028Z,18.60
2022-07-26T03:15:28.812Z,18.50
2022-07-26T03:17:55.541Z,18.50
2022-07-26T03:20:22.315Z,18.50
2022-07-26T03:22:49.091Z,18.50
2022-07-26T03:25:15.780Z,18.50
2022-07-26T03:27:42.447Z,18.50
2022-07-26T03:30:09.783Z,18.40
2022-07-26T03:32:36.475Z,18.40
2022-07-26T03:35:03.679Z,18.40
2022-07-26T03:37:45.982Z,18.40
2022-07-26T03:40:15.269Z,18.40
2022-07-26T03:42:42.143Z,18.40
2022-07-26T03:45:09.220Z,18.30
2022-07-26T03:47:37.141Z,18.30
2022-07-26T03:50:08.059Z,18.30
2022-07-26T03:52:34.764Z,18.30
2022-07-26T03:55:21.423Z,18.30
2022-07-26T03:57:48.275Z,18.30
2022-07-26T04:00:15.128Z,18.20
2022-07-26T04:02:41.899Z,18.30
2022-07-26T04:05:09.103Z,18.20
2022-07-26T04:07:52.814Z,18.30
2022-07-26T04:10:21.292Z,18.30
2022-07-26T04:12:48.236Z,18.30
2022-07-26T04:15:16.918Z,18.20
2022-07-26T04:17:43.823Z,18.30
2022-07-26T04:20:11.513Z,18.40
2022-07-26T04:22:39.331Z,18.40
2022-07-26T04:25:08.129Z,18.30
2022-07-26T04:27:35.507Z,18.30
2022-07-26T04:30:02.494Z,18.30
2022-07-26T04:32:29.191Z,18.30
2022-07-26T04:34:55.849Z,18.30
2022-07-26T04:37:22.585Z,18.30
2022-07-26T04:39:54.440Z,18.20
2022-07-26T04:42:21.716Z,18.20
2022-07-26T04:44:48.526Z,18.20
2022-07-26T04:47:15.244Z,18.20
2022-07-26T04:49:41.911Z,18.20
2022-07-26T04:52:08.595Z,18.20
2022-07-26T04:54:35.301Z,18.20
2022-07-26T04:57:02.035Z,18.20
2022-07-26T04:59:28.890Z,18.20
2022-07-26T05:01:59.719Z,18.20
2022-07-26T05:04:26.544Z,18.20
2022-07-26T05:06:53.388Z,18.20
2022-07-26T05:09:20.257Z,18.20
2022-07-26T05:11:46.988Z,18.20
2022-07-26T05:14:13.632Z,18.20
2022-07-26T05:16:44.334Z,18.30
2022-07-26T05:19:13.742Z,18.30
2022-07-26T05:21:41.046Z,18.40
2022-07-26T05:24:08.347Z,18.40
2022-07-26T05:26:35.314Z,18.40
2022-07-26T05:29:02.159Z,18.40
2022-07-26T05:31:29.123Z,18.40
2022-07-26T05:33:55.813Z,18.40
2022-07-26T05:36:22.679Z,18.50
2022-07-26T05:38:49.354Z,18.50
2022-07-26T05:41:16.577Z,18.60
2022-07-26T05:43:43.369Z,18.60
2022-07-26T05:46:11.258Z,18.60
2022-07-26T05:48:42.022Z,18.60
2022-07-26T05:51:09.758Z,18.60
2022-07-26T05:53:37.057Z,18.60
2022-07-26T05:56:04.747Z,18.70
2022-07-26T05:58:31.459Z,18.70
2022-07-26T06:00:58.132Z,18.70
2022-07-26T06:03:25.848Z,18.70
2022-07-26T06:05:55.099Z,18.70
2022-07-26T06:08:22.242Z,18.70
2022-07-26T06:10:49.451Z,18.70
2022-07-26T06:13:16.479Z,18.80
2022-07-26T06:15:44.134Z,18.80
2022-07-26T06:18:11.318Z,18.80
2022-07-26T06:20:42.698Z,18.90
2022-07-26T06:23:09.472Z,18.80
2022-07-26T06:25:36.593Z,18.90
2022-07-26T06:28:08.386Z,18.90
2022-07-26T06:30:36.724Z,18.90
2022-07-26T06:33:03.742Z,19.00
2022-07-26T06:35:32.001Z,19.00
2022-07-26T06:37:59.958Z,19.00
2022-07-26T06:40:26.904Z,19.10
2022-07-26T06:42:53.873Z,19.10
2022-07-26T06:45:20.772Z,19.20
2022-07-26T06:47:47.469Z,19.30
2022-07-26T06:50:14.284Z,19.30
2022-07-26T06:52:43.558Z,19.30
2022-07-26T06:55:14.741Z,19.40
2022-07-26T06:57:44.771Z,19.40
2022-07-26T07:00:17.048Z,19.90
2022-07-26T07:02:43.779Z,19.40
2022-07-26T07:05:11.850Z,19.50
2022-07-26T07:07:38.915Z,19.60
2022-07-26T07:10:07.719Z,19.70
2022-07-26T07:12:34.875Z,19.70
2022-07-26T07:15:01.699Z,19.80
2022-07-26T07:17:28.402Z,19.80
2022-07-26T07:19:55.117Z,19.80
2022-07-26T07:22:21.786Z,19.80
2022-07-26T07:24:48.589Z,19.90
2022-07-26T07:27:15.855Z,19.90
2022-07-26T07:29:43.309Z,19.90
2022-07-26T07:32:17.966Z,19.90
2022-07-26T07:34:45.844Z,20.10
2022-07-26T07:37:14.713Z,20.30
2022-07-26T07:39:41.508Z,20.30
2022-07-26T07:42:08.339Z,20.30
2022-07-26T07:44:35.091Z,20.30
2022-07-26T07:47:01.987Z,20.40
2022-07-26T07:49:28.854Z,20.50
2022-07-26T07:51:55.569Z,20.50
2022-07-26T07:54:22.448Z,20.60
2022-07-26T07:56:49.508Z,20.70
2022-07-26T07:59:16.175Z,20.70
2022-07-26T08:01:42.952Z,20.80
2022-07-26T08:04:11.943Z,20.70
2022-07-26T08:06:40.819Z,20.60
2022-07-26T08:09:08.625Z,20.60
2022-07-26T08:11:36.251Z,20.70
2022-07-26T08:14:03.163Z,20.70
2022-07-26T08:16:30.825Z,20.80
2022-07-26T08:18:58.485Z,20.80
2022-07-26T08:21:28.943Z,20.70
2022-07-26T08:23:56.606Z,20.70
2022-07-26T08:26:23.718Z,20.80
2022-07-26T08:28:58.278Z,21.10
2022-07-26T08:31:36.295Z,21.30
2022-07-26T08:34:03.086Z,21.40
2022-07-26T08:36:32.751Z,21.60
2022-07-26T08:39:01.160Z,21.70
2022-07-26T08:41:28.402Z,21.80
2022-07-26T08:43:55.101Z,21.90
2022-07-26T08:46:25.862Z,22.00
2022-07-26T08:48:54.546Z,21.90
2022-07-26T08:51:23.771Z,21.90
2022-07-26T08:53:54.412Z,21.90
2022-07-26T08:56:21.144Z,21.90
2022-07-26T08:58:47.831Z,21.90
2022-07-26T09:01:15.262Z,21.60
2022-07-26T09:03:42.861Z,21.30
2022-07-26T09:06:18.746Z,21.10
2022-07-26T09:08:47.483Z,21.00
2022-07-26T09:11:23.360Z,21.00
2022-07-26T09:13:54.740Z,21.00
2022-07-26T09:16:21.518Z,20.90
2022-07-26T09:18:48.299Z,20.90
2022-07-26T09:21:32.427Z,20.90
2022-07-26T09:24:00.054Z,20.90
2022-07-26T09:26:27.035Z,21.10
2022-07-26T09:29:13.792Z,21.20
2022-07-26T09:31:40.914Z,21.50
2022-07-26T09:34:08.317Z,21.80
2022-07-26T09:36:50.878Z,22.00
2022-07-26T09:39:17.844Z,22.10
2022-07-26T09:42:26.880Z,22.20
2022-07-26T09:44:57.517Z,22.40
2022-07-26T09:47:36.263Z,22.40
2022-07-26T09:50:14.292Z,22.30
2022-07-26T09:52:41.173Z,22.30
2022-07-26T09:55:09.350Z,22.10
2022-07-26T09:57:36.165Z,21.90
2022-07-26T10:00:05.631Z,21.90
2022-07-26T10:02:33.422Z,22.00
2022-07-26T10:05:00.142Z,21.90
2022-07-26T10:07:27.216Z,22.00
2022-07-26T10:09:59.272Z,22.10
2022-07-26T10:12:30.435Z,22.40
2022-07-26T10:14:57.427Z,22.60
2022-07-26T10:17:29.273Z,22.70
2022-07-26T10:19:59.025Z,22.80
2022-07-26T10:22:56.940Z,22.90
2022-07-26T10:25:23.663Z,22.90
2022-07-26T10:28:00.714Z,23.00
2022-07-26T10:30:34.215Z,22.70
2022-07-26T10:33:10.806Z,22.50
2022-07-26T10:35:43.502Z,22.70
2022-07-26T10:38:29.646Z,23.10
2022-07-26T10:41:06.094Z,23.40
2022-07-26T10:43:42.532Z,23.60
2022-07-26T10:46:16.161Z,23.60
2022-07-26T10:49:03.677Z,23.70
2022-07-26T10:51:39.373Z,23.60
2022-07-26T10:54:11.348Z,23.50
2022-07-26T10:56:39.461Z,23.30
2022-07-26T10:59:06.452Z,23.10
2022-07-26T11:01:37.790Z,23.30
2022-07-26T11:04:05.985Z,23.40
2022-07-26T11:06:32.913Z,23.50
2022-07-26T11:09:10.278Z,23.40
2022-07-26T11:11:37.059Z,23.20
2022-07-26T11:14:06.110Z,23.10
2022-07-26T11:16:47.259Z,23.20
2022-07-26T11:19:25.855Z,23.10
2022-07-26T11:22:00.252Z,22.90
2022-07-26T11:24:27.325Z,22.60
2022-07-26T11:26:54.572Z,22.40
2022-07-26T11:29:39.150Z,22.20
2022-07-26T11:32:19.229Z,22.20
2022-07-26T11:34:47.507Z,22.10
2022-07-26T11:37:14.754Z,22.30
2022-07-26T11:39:41.500Z,22.70
2022-07-26T11:42:19.390Z,23.00
2022-07-26T11:44:47.231Z,23.40
2022-07-26T11:47:20.190Z,23.30
2022-07-26T11:50:01.030Z,23.30
2022-07-26T11:52:36.064Z,23.40
2022-07-26T11:55:02.971Z,23.40
2022-07-26T11:57:31.347Z,23.40
2022-07-26T11:59:59.673Z,23.50
2022-07-26T12:02:26.788Z,23.70
2022-07-26T12:05:17.139Z,23.70
2022-07-26T12:07:58.006Z,23.80
2022-07-26T12:10:24.899Z,23.90
2022-07-26T12:13:10.420Z,24.10
2022-07-26T12:15:46.864Z,24.20
2022-07-26T12:18:31.202Z,24.30
2022-07-26T12:21:07.954Z,24.40
2022-07-26T12:23:44.880Z,24.30
2022-07-26T12:26:21.530Z,24.30
2022-07-26T12:28:52.469Z,24.40
2022-07-26T12:31:27.928Z,24.40
2022-07-26T12:33:55.090Z,24.50
2022-07-26T12:36:27.977Z,24.70
2022-07-26T12:38:57.901Z,24.90
2022-07-26T12:41:37.644Z,25.00
2022-07-26T12:44:05.602Z,24.80
2022-07-26T12:46:35.083Z,24.30
2022-07-26T12:49:02.600Z,23.90
2022-07-26T12:51:29.437Z,23.70
2022-07-26T12:53:56.092Z,23.60
2022-07-26T12:56:22.770Z,23.60
2022-07-26T12:58:49.506Z,23.60
2022-07-26T13:01:16.707Z,23.80
2022-07-26T13:03:44.564Z,24.10
2022-07-26T13:06:11.342Z,24.40
2022-07-26T13:08:38.345Z,24.70
2022-07-26T13:11:07.779Z,24.80
2022-07-26T13:13:34.482Z,24.90
2022-07-26T13:16:01.263Z,24.80
2022-07-26T13:18:27.974Z,24.80
2022-07-26T13:20:54.691Z,24.80
2022-07-26T13:23:23.130Z,24.80
2022-07-26T13:25:53.639Z,24.70
2022-07-26T13:28:21.344Z,24.60
2022-07-26T13:30:48.150Z,24.60
2022-07-26T13:33:16.595Z,24.40
2022-07-26T13:35:43.477Z,24.30
2022-07-26T13:38:10.527Z,24.10
2022-07-26T13:40:37.267Z,24.20
2022-07-26T13:43:04.843Z,24.40
2022-07-26T13:45:31.630Z,24.70
2022-07-26T13:47:59.118Z,24.80
2022-07-26T13:50:29.588Z,24.80
2022-07-26T13:52:56.821Z,24.70
2022-07-26T13:55:24.445Z,24.60
2022-07-26T13:57:56.718Z,24.70
2022-07-26T14:00:25.287Z,25.00
2022-07-26T14:02:52.314Z,25.10
2022-07-26T14:05:20.978Z,25.20
2022-07-26T14:07:47.703Z,25.30
2022-07-26T14:10:14.404Z,25.30
2022-07-26T14:12:41.229Z,25.20
2022-07-26T14:15:13.807Z,25.10
2022-07-26T14:17:45.540Z,25.00
2022-07-26T14:20:16.861Z,24.90
2022-07-26T14:22:43.743Z,24.80
2022-07-26T14:25:10.660Z,24.60
2022-07-26T14:27:37.727Z,24.50
2022-07-26T14:30:05.607Z,24.60
2022-07-26T14:32:32.331Z,24.70
2022-07-26T14:34:59.011Z,24.80
2022-07-26T14:37:44.015Z,25.00
2022-07-26T14:40:13.865Z,25.00
2022-07-26T14:42:40.608Z,25.00
2022-07-26T14:45:09.380Z,24.90
2022-07-26T14:47:36.412Z,24.90
2022-07-26T14:50:06.755Z,24.80
2022-07-26T14:52:36.250Z,24.60
2022-07-26T14:55:03.079Z,24.30
2022-07-26T14:57:30.876Z,24.00
2022-07-26T14:59:59.140Z,23.80
2022-07-26T15:02:26.095Z,23.80
2022-07-26T15:04:52.905Z,23.80
2022-07-26T15:07:19.729Z,23.70
2022-07-26T15:09:46.495Z,23.80
2022-07-26T15:12:13.224Z,23.90
2022-07-26T15:14:41.030Z,23.90
2022-07-26T15:17:07.784Z,24.10
2022-07-26T15:19:35.249Z,24.20
2022-07-26T15:22:02.120Z,24.20
2022-07-26T15:24:28.993Z,24.10
2022-07-26T15:26:55.899Z,23.90
2022-07-26T15:29:22.733Z,23.70
2022-07-26T15:31:50.510Z,23.60
2022-07-26T15:34:17.451Z,23.60
2022-07-26T15:36:44.149Z,23.70
2022-07-26T15:39:18.617Z,23.70
2022-07-26T15:41:46.856Z,23.70
2022-07-26T15:44:18.990Z,23.50
2022-07-26T15:46:48.172Z,23.60
2022-07-26T15:49:16.612Z,23.80
2022-07-26T15:51:43.970Z,23.90
2022-07-26T15:54:13.150Z,23.90
2022-07-26T15:56:40.537Z,23.80
2022-07-26T15:59:07.245Z,23.70
2022-07-26T16:01:35.173Z,23.70
2022-07-26T16:04:02.501Z,23.60
2022-07-26T16:06:29.272Z,23.50
2022-07-26T16:09:16.105Z,23.50
2022-07-26T16:11:42.985Z,23.60
2022-07-26T16:14:09.710Z,23.80
2022-07-26T16:16:36.760Z,24.10
2022-07-26T16:19:07.156Z,24.20
2022-07-26T16:21:33.952Z,24.30
2022-07-26T16:24:06.035Z,24.30
2022-07-26T16:26:33.699Z,24.20
2022-07-26T16:29:00.749Z,24.20
2022-07-26T16:31:27.830Z,24.20
2022-07-26T16:33:54.631Z,24.20
2022-07-26T16:36:21.297Z,24.30
2022-07-26T16:38:48.002Z,24.30
2022-07-26T16:41:14.718Z,24.30
2022-07-26T16:43:41.742Z,24.40
2022-07-26T16:46:08.691Z,24.40
2022-07-26T16:48:35.465Z,24.50
2022-07-26T16:51:02.351Z,24.40
2022-07-26T16:53:29.076Z,24.20
2022-07-26T16:55:55.822Z,24.10
2022-07-26T16:58:22.808Z,24.10
2022-07-26T17:00:49.685Z,24.10
2022-07-26T17:03:16.736Z,24.00
2022-07-26T17:05:45.780Z,24.00
2022-07-26T17:08:12.943Z,23.90
2022-07-26T17:10:39.622Z,23.90
2022-07-26T17:13:06.509Z,23.80
2022-07-26T17:15:33.277Z,23.70
2022-07-26T17:18:00.060Z,23.50
2022-07-26T17:20:26.971Z,23.50
2022-07-26T17:22:53.748Z,23.60
2022-07-26T17:25:20.712Z,23.50
2022-07-26T17:27:47.470Z,23.40
2022-07-26T17:30:14.388Z,23.30
2022-07-26T17:32:41.299Z,23.30
2022-07-26T17:35:08.820Z,23.40
2022-07-26T17:37:35.628Z,23.50
2022-07-26T17:40:03.799Z,23.60
2022-07-26T17:42:30.566Z,23.70
2022-07-26T17:44:57.320Z,23.70
2022-07-26T17:47:27.953Z,23.70
2022-07-26T17:52:47.516Z,23.60
2022-07-26T17:55:14.385Z,23.50
2022-07-26T17:57:42.062Z,23.30
2022-07-26T18:00:09.427Z,23.20
2022-07-26T18:02:36.334Z,23.00
2022-07-26T18:05:03.256Z,22.90
2022-07-26T18:07:30.081Z,22.80
2022-07-26T18:09:57.039Z,22.80
2022-07-26T18:12:23.794Z,22.70
2022-07-26T18:14:50.481Z,22.70
2022-07-26T18:17:17.209Z,22.70
2022-07-26T18:19:43.908Z,22.60
2022-07-26T18:22:10.602Z,22.60
2022-07-26T18:24:37.265Z,22.50
2022-07-26T18:27:04.030Z,22.40
2022-07-26T18:29:30.845Z,22.40
2022-07-26T18:32:00.208Z,22.40
2022-07-26T18:34:27.263Z,22.40
2022-07-26T18:36:54.314Z,22.40
2022-07-26T18:39:21.010Z,22.30
2022-07-26T18:41:47.726Z,22.20
2022-07-26T18:44:15.694Z,22.20
2022-07-26T18:46:42.570Z,22.10
2022-07-26T18:49:15.813Z,22.00
2022-07-26T18:51:48.754Z,22.00
2022-07-26T18:54:16.732Z,21.90
2022-07-26T18:56:43.893Z,21.80
2022-07-26T18:59:10.948Z,21.70
2022-07-26T19:01:37.942Z,21.60
2022-07-26T19:04:06.993Z,21.50
2022-07-26T19:06:34.927Z,21.50
2022-07-26T19:09:01.675Z,21.40
2022-07-26T19:11:29.719Z,21.30
2022-07-26T19:13:56.513Z,21.20
2022-07-26T19:16:23.463Z,21.10
2022-07-26T19:18:53.811Z,21.00
2022-07-26T19:21:24.157Z,20.90
2022-07-26T19:23:50.955Z,20.80
2022-07-26T19:26:17.657Z,20.80
2022-07-26T19:28:44.380Z,20.70
2022-07-26T19:31:11.306Z,20.70
2022-07-26T19:33:38.066Z,20.60
2022-07-26T19:36:04.945Z,20.60
2022-07-26T19:38:32.923Z,20.50
2022-07-26T19:41:00.297Z,20.50
2022-07-26T19:43:27.671Z,20.50
2022-07-26T19:45:54.489Z,20.60
2022-07-26T19:48:21.386Z,20.60
2022-07-26T19:50:48.615Z,20.60
2022-07-26T19:53:15.374Z,20.60
2022-07-26T19:55:42.428Z,20.60
2022-07-26T19:58:09.233Z,20.60
2022-07-26T20:00:36.112Z,20.60
2022-07-26T20:03:02.908Z,20.70
2022-07-26T20:05:29.818Z,20.60
2022-07-26T20:07:56.514Z,20.60
2022-07-26T20:10:25.304Z,20.60
2022-07-26T20:12:54.165Z,20.60
2022-07-26T20:15:22.413Z,20.50
2022-07-26T20:17:49.345Z,20.50
2022-07-26T20:20:17.843Z,20.40
2022-07-26T20:22:44.603Z,20.30
2022-07-26T20:25:11.747Z,20.30
2022-07-26T20:27:38.490Z,20.30
2022-07-26T20:30:06.094Z,20.20
2022-07-26T20:32:32.916Z,20.10
2022-07-26T20:34:59.845Z,20.10
2022-07-26T20:37:26.635Z,20.00
2022-07-26T20:39:53.294Z,20.00
2022-07-26T20:42:22.090Z,20.00
2022-07-26T20:44:49.408Z,19.90
2022-07-26T20:47:16.119Z,19.90
2022-07-26T20:49:42.768Z,19.90
2022-07-26T20:52:09.635Z,19.90
2022-07-26T20:54:36.403Z,19.80
2022-07-26T20:57:04.391Z,19.80
2022-07-26T20:59:32.316Z,19.80
2022-07-26T21:01:59.285Z,19.70
2022-07-26T21:04:26.067Z,19.70
2022-07-26T21:06:52.928Z,19.70
2022-07-26T21:09:19.845Z,19.60
2022-07-26T21:11:46.933Z,19.60
2022-07-26T21:14:13.779Z,19.60
2022-07-26T21:16:40.618Z,19.60
2022-07-26T21:19:07.420Z,19.60
2022-07-26T21:21:34.554Z,19.50
2022-07-26T21:24:01.250Z,19.50
2022-07-26T21:26:28.065Z,19.50
2022-07-26T21:28:54.759Z,19.50
2022-07-26T21:31:21.649Z,19.50
2022-07-26T21:33:48.399Z,19.50
2022-07-26T21:36:15.106Z,19.50
2022-07-26T21:38:42.154Z,19.50
2022-07-26T21:41:08.889Z,19.40
2022-07-26T21:43:40.052Z,19.40
2022-07-26T21:46:11.920Z,19.40
2022-07-26T21:48:39.406Z,19.40
2022-07-26T21:51:06.249Z,19.40
2022-07-26T21:53:32.960Z,19.40
2022-07-26T21:55:59.654Z,19.30
2022-07-26T21:58:27.972Z,19.30
2022-07-26T22:01:03.321Z,19.30
2022-07-26T22:03:35.619Z,19.30
2022-07-26T22:06:02.755Z,19.30
2022-07-26T22:08:29.501Z,19.20
2022-07-26T22:10:56.651Z,19.20
2022-07-26T22:13:23.544Z,19.20
2022-07-26T22:15:50.324Z,19.20
2022-07-26T22:18:17.326Z,19.10
2022-07-26T22:20:44.239Z,19.10
2022-07-26T22:23:11.963Z,19.10
2022-07-26T22:25:39.433Z,19.10
2022-07-26T22:28:08.056Z,19.00
2022-07-26T22:30:34.911Z,19.00
2022-07-26T22:33:03.218Z,19.00
2022-07-26T22:35:34.999Z,18.90
2022-07-26T22:38:05.762Z,18.90
2022-07-26T22:40:33.021Z,18.80
2022-07-26T22:43:00.130Z,18.80
2022-07-26T22:45:28.646Z,18.80
2022-07-26T22:47:56.721Z,18.70
2022-07-26T22:50:23.873Z,18.70
2022-07-26T22:52:52.347Z,18.70
2022-07-26T22:55:19.739Z,18.60
2022-07-26T22:57:46.860Z,18.60
2022-07-26T23:00:15.797Z,18.60
2022-07-26T23:02:42.676Z,18.50
2022-07-26T23:05:10.238Z,18.50
2022-07-26T23:07:37.675Z,18.50
2022-07-26T23:10:06.439Z,18.50
2022-07-26T23:12:33.610Z,18.40
2022-07-26T23:15:00.305Z,18.40
2022-07-26T23:17:27.068Z,18.40
2022-07-26T23:19:53.771Z,18.40
2022-07-26T23:22:20.566Z,18.30
2022-07-26T23:24:47.278Z,18.30
2022-07-26T23:27:19.564Z,18.30
2022-07-26T23:29:47.982Z,18.30
2022-07-26T23:32:15.881Z,18.30
2022-07-26T23:34:42.715Z,18.20
2022-07-26T23:37:09.401Z,18.20
2022-07-26T23:39:36.286Z,18.20
2022-07-26T23:42:03.158Z,18.20
2022-07-26T23:44:30.965Z,18.20
2022-07-26T23:46:58.191Z,18.20
2022-07-26T23:49:25.213Z,18.20
2022-07-26T23:51:52.007Z,18.20
2022-07-26T23:54:18.695Z,18.30
2022-07-26T23:56:45.634Z,18.20
2022-07-26T23:59:13.047Z,18.30
